Latest Weather Observations for Grove

IDT60901

Issued at 10:31 pm EST Wednesday 25 May 2022 (issued every 10 minutes, with the page automatically refreshed every 10 minutes)

About weather observations | Map of Hobart area stations | Latest observations for Hobart area | Other Formats
Station Details ID: 094220 Name: GROVE (RESEARCH STATION) Lat: -42.98 Lon: 147.08 Height: 65.0 m
Data from the previous 72 hours. | See also: Recent months at Grove
Date/Time
EST
Temp
°C
App
Temp
°C
Dew
Point
°C
Rel
Hum
%
Delta-T
°C
Wind Press
QNH
hPa
Press
MSL
hPa
Rain since
9am
mm
Dir  Spd
km/h
Gust
km/h
Spd
kts
Gust
kts
25/10:30pm 2.9 -0.3 2.8 99 0.0 NE 9 13 5 7 - - 0.0
25/10:00pm 2.7 0.4 2.6 99 0.0 E 4 9 2 5 - - 0.0
25/09:30pm 2.4 0.7 2.1 98 0.1 CALM 0 0 0 0 - - 0.0
25/09:00pm 2.9 0.2 2.6 98 0.1 NE 6 11 3 6 - - 0.0
25/08:30pm 3.8 2.0 3.5 98 0.1 NE 2 9 1 5 - - 0.0
25/08:00pm 4.5 2.1 4.1 97 0.2 NE 6 13 3 7 - - 0.0
25/07:30pm 5.7 3.3 5.1 96 0.3 NW 7 11 4 6 - - 0.0
25/07:00pm 5.3 3.0 4.9 97 0.2 NW 6 13 3 7 - - 0.0
25/06:30pm 6.4 4.1 5.8 96 0.3 SSW 7 11 4 6 - - 0.0
25/06:00pm 5.6 3.7 5.0 96 0.3 NNW 4 9 2 5 - - 0.0
25/05:30pm 7.0 5.0 6.4 96 0.3 E 6 9 3 5 - - 0.0
25/05:00pm 7.2 5.0 6.0 92 0.5 NW 7 9 4 5 - - 0.0
25/04:30pm 10.5 9.5 7.4 81 1.5 W 2 7 1 4 - - 0.0
25/04:00pm 13.0 11.9 8.5 74 2.2 NW 4 7 2 4 - - 0.0
25/03:30pm 13.9 12.9 8.7 71 2.6 W 4 7 2 4 - - 0.0
25/03:00pm 13.7 12.7 9.0 73 2.4 NNE 4 6 2 3 - - 0.0
25/02:30pm 13.3 12.6 8.6 73 2.4 NE 2 6 1 3 - - 0.0
25/02:00pm 11.1 10.6 7.8 80 1.6 CALM 0 0 0 0 - - 0.0
25/01:30pm 9.1 7.6 6.7 85 1.1 WSW 4 7 2 4 - - 0.0
25/01:00pm 7.0 5.8 6.4 96 0.3 S 2 7 1 4 - - 0.0
25/12:30pm 5.2 3.3 4.9 98 0.1 SSW 4 9 2 5 - - 0.0
25/12:00pm 4.6 2.6 4.5 99 0.0 S 4 7 2 4 - - 0.0
25/11:30am 3.6 1.4 3.5 99 0.0 N 4 7 2 4 - - 0.0
25/11:00am 3.1 0.5 3.0 99 0.0 NE 6 7 3 4 - - 0.0
25/10:30am 2.8 0.9 2.7 99 0.0 N 2 7 1 4 - - 0.0
25/10:00am 2.5 -0.2 2.4 99 0.0 W 6 7 3 4 - - 0.0
25/09:30am 2.0 -0.4 1.9 99 0.0 N 4 6 2 3 - - 0.0
25/09:00am 2.0 -0.8 1.9 99 0.0 ENE 6 7 3 4 - - 0.0
25/08:30am 2.1 0.4 2.0 99 0.0 CALM 0 6 0 3 - - 0.0
25/08:00am 2.0 -0.8 1.9 99 0.0 NE 6 7 3 4 - - 0.0
25/07:30am 2.3 -0.5 2.2 99 0.0 NNE 6 7 3 4 - - 0.0
25/07:00am 2.3 0.7 2.2 99 0.0 CALM 0 6 0 3 - - 0.0
25/06:30am 2.3 -0.5 2.2 99 0.0 SE 6 7 3 4 - - 0.0
25/06:00am 2.4 -0.4 2.3 99 0.0 NE 6 7 3 4 - - 0.0
25/05:30am 2.9 1.4 2.8 99 0.0 CALM 0 0 0 0 - - 0.0
25/05:00am 3.0 1.5 2.9 99 0.0 CALM 0 0 0 0 - - 0.0
25/04:30am 3.1 1.6 3.0 99 0.0 CALM 0 0 0 0 - - 0.0
25/04:00am 3.3 1.8 3.2 99 0.0 CALM 0 0 0 0 - - 0.0
25/03:30am 3.2 1.7 3.1 99 0.0 CALM 0 0 0 0 - - 0.0
25/03:00am 3.1 1.2 3.0 99 0.0 NNE 2 7 1 4 - - 0.0
25/02:30am 2.8 0.1 2.7 99 0.0 NNE 6 7 3 4 - - 0.0
25/02:00am 2.6 1.0 2.5 99 0.0 CALM 0 0 0 0 - - 0.0
25/01:30am 2.2 -0.2 2.1 99 0.0 E 4 6 2 3 - - 0.0
25/01:00am 1.5 -0.3 1.4 99 0.0 CALM 0 0 0 0 - - 0.0
25/12:30am 1.0 -0.8 0.9 99 0.0 CALM 0 0 0 0 - - 0.0
25/12:00am 0.8 -1.1 0.7 99 0.0 CALM 0 0 0 0 - - 0.0
 
Date/Time
EST
Temp
°C
App
Temp
°C
Dew
Point
°C
Rel
Hum
%
Delta-T
°C
Wind Press
QNH
hPa
Press
MSL
hPa
Rain since
9am
mm
Dir  Spd
km/h
Gust
km/h
Spd
kts
Gust
kts
24/11:30pm 0.9 -1.0 0.8 99 0.0 CALM 0 0 0 0 - - 0.0
24/11:00pm 0.7 -1.2 0.4 98 0.1 CALM 0 0 0 0 - - 0.0
24/10:30pm 0.8 -1.1 0.5 98 0.1 CALM 0 0 0 0 - - 0.0
24/10:00pm 1.1 -0.8 0.8 98 0.1 CALM 0 0 0 0 - - 0.0
24/09:30pm 1.8 0.0 1.5 98 0.1 CALM 0 0 0 0 - - 0.0
24/09:00pm 2.1 0.0 1.8 98 0.1 NNE 2 6 1 3 - - 0.0
24/08:30pm 2.6 1.0 2.3 98 0.1 CALM 0 7 0 4 - - 0.0
24/08:00pm 2.5 -0.3 2.2 98 0.1 NNE 6 7 3 4 - - 0.0
24/07:30pm 3.6 1.0 3.3 98 0.1 NE 6 7 3 4 - - 0.0
24/07:00pm 4.1 1.4 3.8 98 0.1 NNE 7 9 4 5 - - 0.0
24/06:30pm 5.3 3.8 4.9 97 0.2 NE 2 9 1 5 - - 0.0
24/06:00pm 5.8 4.7 5.1 95 0.3 CALM 0 0 0 0 - - 0.0
24/05:30pm 6.7 5.7 5.7 93 0.4 CALM 0 2 0 1 - - 0.0
24/05:00pm 8.0 6.4 6.5 90 0.7 W 4 6 2 3 - - 0.0
24/04:30pm 10.1 9.0 7.0 81 1.5 NW 2 7 1 4 - - 0.0
24/04:00pm 12.2 10.5 7.7 74 2.2 WNW 6 9 3 5 - - 0.0
24/03:30pm 12.6 12.1 7.7 72 2.4 CALM 0 4 0 2 - - 0.0
24/03:00pm 12.8 10.8 6.4 65 3.1 WNW 6 7 3 4 - - 0.0
24/02:30pm 13.0 11.1 6.8 66 3.0 W 6 7 3 4 - - 0.0
24/02:00pm 12.5 10.5 6.3 66 2.9 W 6 7 3 4 - - 0.0
24/01:30pm 12.1 10.1 6.2 67 2.8 WSW 6 9 3 5 - - 0.0
24/01:00pm 11.5 9.7 7.0 74 2.2 WSW 6 9 3 5 - - 0.0
24/12:30pm 9.9 9.2 7.0 82 1.4 CALM 0 4 0 2 - - 0.0
24/12:00pm 8.6 7.2 7.1 90 0.7 WNW 4 7 2 4 - - 0.0
24/11:30am 6.9 5.7 6.3 96 0.3 S 2 7 1 4 - - 0.0
24/11:00am 6.6 5.4 6.3 98 0.1 WSW 2 6 1 3 - - 0.0
24/10:30am 6.3 4.6 6.0 98 0.1 WSW 4 6 2 3 - - 0.0
24/10:00am 6.1 4.4 5.8 98 0.1 WNW 4 6 2 3 - - 0.0
24/09:30am 6.0 4.7 5.9 99 0.0 WNW 2 9 1 5 - - 0.0
24/09:00am 5.6 3.8 5.5 99 0.0 NW 4 6 2 3 - - 0.0
24/08:30am 5.2 4.1 5.1 99 0.0 CALM 0 0 0 0 - - 0.0
24/08:00am 4.1 2.8 4.0 99 0.0 CALM 0 0 0 0 - - 0.0
24/07:30am 3.5 2.1 3.4 99 0.0 CALM 0 0 0 0 - - 0.0
24/07:00am 3.5 2.0 3.2 98 0.1 CALM 0 0 0 0 - - 0.0
24/06:30am 3.8 2.4 3.7 99 0.0 CALM 0 0 0 0 - - 0.0
24/06:00am 3.7 2.3 3.4 98 0.1 CALM 0 0 0 0 - - 0.0
24/05:30am 4.0 1.9 3.9 99 0.0 NE 4 6 2 3 - - 0.0
24/05:00am 4.0 1.5 3.9 99 0.0 NNE 6 7 3 4 - - 0.0
24/04:30am 3.9 2.1 3.6 98 0.1 N 2 6 1 3 - - 0.0
24/04:00am 3.9 1.2 3.6 98 0.1 NE 7 7 4 4 - - 0.0
24/03:30am 4.7 2.3 4.4 98 0.1 NE 6 7 3 4 - - 0.0
24/03:00am 4.9 3.7 4.6 98 0.1 CALM 0 0 0 0 - - 0.0
24/02:30am 5.3 3.4 5.0 98 0.1 NNE 4 6 2 3 - - 0.0
24/02:00am 5.9 4.9 5.5 97 0.2 CALM 0 0 0 0 - - 0.0
24/01:30am 6.6 5.7 6.2 97 0.2 CALM 0 0 0 0 - - 0.0
24/01:00am 6.9 6.1 6.3 96 0.3 CALM 0 0 0 0 - - 0.0
24/12:30am 7.2 6.5 6.8 97 0.2 CALM 0 0 0 0 - - 0.0
24/12:00am 7.4 6.7 6.8 96 0.3 CALM 0 0 0 0 - - 0.0
 
Date/Time
EST
Temp
°C
App
Temp
°C
Dew
Point
°C
Rel
Hum
%
Delta-T
°C
Wind Press
QNH
hPa
Press
MSL
hPa
Rain since
9am
mm
Dir  Spd
km/h
Gust
km/h
Spd
kts
Gust
kts
23/11:30pm 7.5 6.8 6.9 96 0.3 CALM 0 0 0 0 - - 0.0
23/11:00pm 7.5 5.7 7.1 97 0.2 N 6 6 3 3 - - 0.0
23/10:30pm 7.3 6.5 6.7 96 0.3 CALM 0 0 0 0 - - 0.0
23/10:00pm 7.3 6.5 6.7 96 0.3 CALM 0 0 0 0 - - 0.0
23/09:30pm 7.2 5.3 6.8 97 0.2 NNE 6 6 3 3 - - 0.0
23/09:00pm 7.1 6.3 6.7 97 0.2 CALM 0 7 0 4 - - 0.0
23/08:30pm 6.9 5.0 6.5 97 0.2 NNE 6 6 3 3 - - 0.0
23/08:00pm 6.6 4.9 6.0 96 0.3 NE 4 7 2 4 - - 0.0
23/07:30pm 6.5 5.6 5.9 96 0.3 CALM 0 0 0 0 - - 0.0
23/07:00pm 7.4 6.6 6.7 95 0.3 CALM 0 0 0 0 - - 0.0
23/06:30pm 7.8 7.1 7.1 95 0.3 CALM 0 0 0 0 - - 0.0
23/06:00pm 8.0 7.3 6.9 93 0.5 CALM 0 0 0 0 - - 0.0
23/05:30pm 8.3 7.7 7.2 93 0.5 CALM 0 0 0 0 - - 0.0
23/05:00pm 9.2 8.6 7.6 90 0.8 CALM 0 2 0 1 - - 0.0
23/04:30pm 10.9 9.1 8.0 82 1.4 W 7 9 4 5 - - 0.0
23/04:00pm 13.9 12.5 8.9 72 2.5 W 6 7 3 4 - - 0.0
23/03:30pm 14.3 12.5 8.0 66 3.1 SW 7 11 4 6 - - 0.0
23/03:00pm 14.5 12.4 8.2 66 3.2 WSW 9 11 5 6 - - 0.0
23/02:30pm 15.0 13.3 9.8 71 2.7 WSW 9 15 5 8 - - 0.0
23/02:00pm 14.6 13.0 7.9 64 3.3 SW 6 9 3 5 - - 0.0
23/01:30pm 14.6 13.1 8.5 67 3.1 WSW 6 11 3 6 - - 0.0
23/01:00pm 13.9 12.4 8.3 69 2.8 SSW 6 9 3 5 - - 0.0
23/12:30pm 13.7 12.9 8.1 69 2.8 W 2 7 1 4 - - 0.0
23/12:00pm 13.1 12.1 8.8 75 2.2 SW 4 9 2 5 - - 0.0
23/11:30am 11.7 10.9 8.0 78 1.8 SW 2 7 1 4 - - 0.0
23/11:00am 11.6 10.8 8.3 80 1.6 WSW 2 6 1 3 - - 0.0
23/10:30am 10.2 9.7 8.0 86 1.1 CALM 0 0 0 0 - - 0.0
23/10:00am 8.7 8.1 7.2 90 0.7 CALM 0 0 0 0 - - 0.0
23/09:30am 8.2 7.6 7.3 94 0.4 CALM 0 0 0 0 - - 0.0
23/09:00am 6.4 5.6 6.3 99 0.0 CALM 0 0 0 0 - - 0.2
23/08:30am 5.1 4.0 5.0 99 0.0 CALM 0 0 0 0 - - 0.2
23/08:00am 3.4 0.8 3.1 98 0.1 NE 6 6 3 3 - - 0.2
23/07:30am 4.0 1.5 3.9 99 0.0 NE 6 6 3 3 - - 0.0
23/07:00am 3.8 1.3 3.5 98 0.1 NE 6 7 3 4 - - 0.0
23/06:30am 4.7 3.5 4.4 98 0.1 CALM 0 0 0 0 - - 0.0
23/06:00am 5.6 4.5 5.3 98 0.1 CALM 0 0 0 0 - - 0.0
23/05:30am 6.1 5.1 5.8 98 0.1 CALM 0 0 0 0 - - 0.0
23/05:00am 6.4 5.5 6.1 98 0.1 CALM 0 0 0 0 - - 0.0
23/04:30am 6.3 5.4 6.0 98 0.1 CALM 0 0 0 0 - - 0.0
23/04:00am 6.2 5.3 5.9 98 0.1 CALM 0 0 0 0 - - 0.0
23/03:30am 6.0 5.0 5.7 98 0.1 CALM 0 0 0 0 - - 0.0
23/03:00am 5.9 4.9 5.6 98 0.1 CALM 0 0 0 0 - - 0.0
23/02:30am 5.5 4.0 5.2 98 0.1 NNE 2 6 1 3 - - 0.0
23/02:00am 5.4 4.3 5.1 98 0.1 CALM 0 0 0 0 - - 0.0
23/01:30am 5.4 3.5 5.1 98 0.1 NNE 4 6 2 3 - - 0.0
23/01:00am 5.8 3.6 5.5 98 0.1 NNE 6 7 3 4 - - 0.0
23/12:30am 5.5 4.0 5.2 98 0.1 NNE 2 7 1 4 - - 0.0
23/12:00am 5.3 4.2 5.0 98 0.1 CALM 0 0 0 0 - - 0.0
 
Date/Time
EST
Temp
°C
App
Temp
°C
Dew
Point
°C
Rel
Hum
%
Delta-T
°C
Wind Press
QNH
hPa
Press
MSL
hPa
Rain since
9am
mm
Dir  Spd
km/h
Gust
km/h
Spd
kts
Gust
kts
22/11:30pm 5.5 4.4 5.2 98 0.1 CALM 0 0 0 0 - - 0.0
22/11:00pm 6.1 5.1 5.8 98 0.1 CALM 0 0 0 0 - - 0.0

Latest Capital City Observations: Canberra | Sydney | Melbourne | Brisbane | Adelaide | Perth | Hobart | Darwin

Other formats

Comma delimited format used in spreadsheet applications
http://www.bom.gov.au/fwo/IDT60901/IDT60901.95977.axf

JavaScript Object Notation format (JSON) in row-major order
http://www.bom.gov.au/fwo/IDT60901/IDT60901.95977.json

Data quality

Most of these data are generated automatically and are frequently updated. Quality checks on data are not normally performed. It is possible for incorrect values to appear. Refer to information at About Latest Weather Observations and please check the disclaimer before using these data.